Time;durP1;ratioP1;P1;durP2;ratioP2;P2;SDS_P1;SDS_P2;PMS_P1;PMS_P2;Temp;Humidity;BMP_temperature;BMP_pressure;BME280_temperature;BME280_humidity;BME280_pressure;Samples;Min_cycle;Max_cycle;Signal;HPM_P1;HPM_P2
2023/07/29 00:00:13;;;;;;;1.67;0.80;;;21.90;99.90;;;;;;6221655;22;20188;-95
2023/07/29 00:02:41;;;;;;;4.40;0.80;;;21.90;99.90;;;;;;6220261;22;20024;-95
2023/07/29 00:05:11;;;;;;;2.20;1.08;;;21.80;99.90;;;;;;6246487;22;20024;-94
2023/07/29 00:07:38;;;;;;;4.40;0.60;;;21.80;99.90;;;;;;6220264;22;20389;-93
2023/07/29 00:10:06;;;;;;;2.53;0.88;;;21.80;99.90;;;;;;6221146;22;20020;-94
2023/07/29 00:12:34;;;;;;;4.13;1.52;;;21.80;99.90;;;;;;6245033;22;20106;-94
2023/07/29 00:15:01;;;;;;;2.92;1.02;;;21.70;99.90;;;;;;6219994;22;20023;-95
2023/07/29 00:17:31;;;;;;;3.05;1.08;;;21.70;99.90;;;;;;6220562;22;20020;-95
2023/07/29 00:20:00;;;;;;;3.55;1.02;;;21.70;99.90;;;;;;6221016;22;20026;-95
2023/07/29 00:22:30;;;;;;;3.85;1.98;;;21.70;99.90;;;;;;6222506;22;20026;-96
2023/07/29 00:24:59;;;;;;;6.60;1.20;;;21.70;99.90;;;;;;6221467;22;20102;-96
2023/07/29 00:27:26;;;;;;;4.80;1.08;;;21.70;99.90;;;;;;6245678;22;20023;-94
2023/07/29 00:29:54;;;;;;;4.70;1.08;;;21.60;99.90;;;;;;6221173;22;20020;-95
2023/07/29 00:32:22;;;;;;;6.07;1.13;;;21.60;99.90;;;;;;6220296;22;20070;-95
2023/07/29 00:34:49;;;;;;;3.78;0.90;;;21.70;99.90;;;;;;6244168;22;20398;-96
2023/07/29 00:37:16;;;;;;;3.42;1.30;;;21.60;99.90;;;;;;6220517;22;20046;-95
2023/07/29 00:39:45;;;;;;;3.15;1.13;;;21.60;99.90;;;;;;6222009;22;20123;-95
2023/07/29 00:42:13;;;;;;;2.95;1.13;;;21.60;99.90;;;;;;6220321;22;20051;-95
2023/07/29 00:44:43;;;;;;;2.50;0.88;;;21.60;99.90;;;;;;6219809;22;20026;-96
2023/07/29 00:47:14;;;;;;;2.25;1.10;;;21.50;99.90;;;;;;6219942;22;20031;-96
2023/07/29 00:49:44;;;;;;;;;;;21.50;99.90;;;;;;6221321;22;20473;-94
2023/07/29 00:52:13;;;;;;;4.07;0.90;;;21.50;99.90;;;;;;6244427;22;19926;-95
2023/07/29 00:54:44;;;;;;;5.18;1.40;;;21.40;99.90;;;;;;6222233;22;20023;-95
2023/07/29 00:57:15;;;;;;;5.07;1.40;;;21.40;99.90;;;;;;6219775;22;20020;-95
2023/07/29 00:59:43;;;;;;;3.40;0.93;;;21.40;99.90;;;;;;6220304;22;20024;-96
2023/07/29 01:02:15;;;;;;;4.32;1.40;;;21.40;99.90;;;;;;6220219;22;20024;-96
2023/07/29 01:04:42;;;;;;;2.92;1.20;;;21.30;99.90;;;;;;6242307;22;20302;-96
2023/07/29 01:07:32;;;;;;;5.55;1.35;;;21.40;99.90;;;;;;6217088;22;20027;-96
2023/07/29 01:10:10;;;;;;;4.90;1.25;;;21.30;99.90;;;;;;6240077;22;20027;-96
2023/07/29 01:12:51;;;;;;;4.32;1.23;;;21.30;99.90;;;;;;6241956;22;20426;-96
2023/07/29 01:15:32;;;;;;;3.90;1.30;;;21.20;99.90;;;;;;6199661;23;20020;-95
2023/07/29 01:18:04;;;;;;;3.95;1.20;;;21.20;99.90;;;;;;6213475;23;20031;-96
2023/07/29 01:20:40;;;;;;;6.13;1.10;;;21.20;99.90;;;;;;6190160;23;20031;-96
2023/07/29 01:23:15;;;;;;;4.65;1.00;;;21.20;99.90;;;;;;6186542;23;20687;-95
2023/07/29 01:25:46;;;;;;;3.78;0.80;;;21.20;99.90;;;;;;6212090;23;20023;-96
2023/07/29 01:28:16;;;;;;;2.28;1.00;;;21.20;99.90;;;;;;6210163;23;20331;-95
2023/07/29 01:30:46;;;;;;;5.80;1.40;;;21.10;99.90;;;;;;6188780;23;20016;-96
2023/07/29 01:34:01;;;;;;;3.83;1.55;;;21.10;99.90;;;;;;6188296;23;20032;-95
2023/07/29 01:36:49;;;;;;;2.65;1.10;;;21.10;99.90;;;;;;6162761;23;20016;-96
2023/07/29 01:39:46;;;;;;;2.80;0.98;;;21.00;99.90;;;;;;6213359;23;20104;-94
2023/07/29 01:42:23;;;;;;;4.50;1.15;;;21.00;99.90;;;;;;6213508;23;20020;-96
2023/07/29 01:44:51;;;;;;;3.33;1.15;;;21.00;99.90;;;;;;6215147;23;20020;-95
2023/07/29 01:47:19;;;;;;;3.60;1.00;;;20.90;99.90;;;;;;6214707;23;20020;-96
2023/07/29 01:49:46;;;;;;;2.75;1.20;;;20.60;99.90;;;;;;6188866;23;20024;-93
2023/07/29 01:52:16;;;;;;;3.13;1.45;;;20.80;99.90;;;;;;6190219;23;20111;-96
2023/07/29 01:54:47;;;;;;;3.25;1.30;;;20.80;99.90;;;;;;6214419;23;20031;-94
2023/07/29 01:57:17;;;;;;;3.42;1.75;;;20.80;99.90;;;;;;6213118;23;20465;-96
2023/07/29 01:59:46;;;;;;;3.17;1.75;;;20.70;99.90;;;;;;6190189;23;20066;-96
2023/07/29 02:02:17;;;;;;;4.20;2.13;;;20.80;99.90;;;;;;6188676;23;20110;-95
2023/07/29 02:04:51;;;;;;;6.28;1.35;;;20.80;99.90;;;;;;6189950;23;20343;-95
2023/07/29 02:07:21;;;;;;;3.40;1.20;;;20.70;99.90;;;;;;6212817;23;20102;-96
2023/07/29 02:10:18;;;;;;;3.85;1.30;;;20.70;99.90;;;;;;6206223;23;20522;-95
2023/07/29 02:12:59;;;;;;;3.75;1.15;;;20.70;99.90;;;;;;6191134;23;20031;-93
2023/07/29 02:15:47;;;;;;;4.70;1.48;;;20.60;99.90;;;;;;6191274;23;20028;-94
2023/07/29 02:18:20;;;;;;;2.97;1.23;;;20.50;99.90;;;;;;6213761;23;20023;-95
2023/07/29 02:20:50;;;;;;;5.05;1.63;;;20.10;99.90;;;;;;6190812;23;20027;-95
2023/07/29 02:23:17;;;;;;;5.85;1.63;;;20.60;99.90;;;;;;6189335;23;20578;-95
2023/07/29 02:25:48;;;;;;;2.90;1.25;;;20.60;99.90;;;;;;6190358;23;20051;-95
2023/07/29 02:28:21;;;;;;;3.72;1.88;;;20.60;99.90;;;;;;6190111;23;20656;-95
2023/07/29 02:31:16;;;;;;;;;;;20.50;99.90;;;;;;6187454;23;20023;-95
2023/07/29 02:33:50;;;;;;;4.43;1.17;;;20.50;99.90;;;;;;6190334;23;19969;-95
2023/07/29 02:36:21;;;;;;;3.25;1.35;;;20.50;99.90;;;;;;6190644;23;20044;-95
2023/07/29 02:38:55;;;;;;;3.03;0.95;;;20.40;99.90;;;;;;6191038;23;20111;-93
2023/07/29 02:41:31;;;;;;;4.78;1.65;;;20.40;99.90;;;;;;6191011;23;20051;-95
2023/07/29 02:44:21;;;;;;;5.05;1.35;;;20.40;99.90;;;;;;6193741;23;20714;-94
2023/07/29 02:47:00;;;;;;;4.70;1.02;;;20.40;99.90;;;;;;6190773;23;20012;-96
2023/07/29 02:49:33;;;;;;;4.07;1.67;;;20.40;99.90;;;;;;6190980;23;20324;-94
2023/07/29 02:52:01;;;;;;;3.53;1.13;;;20.40;99.90;;;;;;6189797;23;20052;-96
2023/07/29 02:54:31;;;;;;;5.28;1.30;;;20.40;99.90;;;;;;6189553;23;20020;-95
2023/07/29 02:57:01;;;;;;;3.53;1.15;;;20.30;99.90;;;;;;6187974;23;20028;-94
2023/07/29 02:59:29;;;;;;;4.57;1.40;;;20.30;99.90;;;;;;6190346;23;20024;-96
2023/07/29 03:02:02;;;;;;;4.45;0.90;;;20.30;99.90;;;;;;6189987;23;20082;-95
2023/07/29 03:04:32;;;;;;;5.55;1.40;;;20.20;99.90;;;;;;6188972;23;20726;-96
2023/07/29 03:07:03;;;;;;;2.67;1.10;;;20.20;99.90;;;;;;6189671;23;20028;-95
2023/07/29 03:09:41;;;;;;;6.40;1.25;;;20.20;99.90;;;;;;6190359;23;20902;-94
2023/07/29 03:12:17;;;;;;;3.58;1.25;;;20.20;99.90;;;;;;6187872;23;20062;-95
2023/07/29 03:14:48;;;;;;;6.25;1.40;;;20.20;99.90;;;;;;6219121;23;20788;-95
2023/07/29 03:17:34;;;;;;;2.90;1.55;;;20.20;99.90;;;;;;6216170;23;20023;-95
2023/07/29 03:20:14;;;;;;;4.20;1.30;;;20.10;99.90;;;;;;6239801;23;20019;-94
2023/07/29 03:23:02;;;;;;;4.65;1.35;;;20.10;99.90;;;;;;6241320;23;20095;-94
2023/07/29 03:25:46;;;;;;;2.67;1.55;;;20.10;99.90;;;;;;6242551;23;20078;-96
2023/07/29 03:28:40;;;;;;;3.20;1.80;;;19.60;99.90;;;;;;6241104;23;20103;-96
2023/07/29 03:31:25;;;;;;;4.57;1.50;;;20.00;99.90;;;;;;6241305;23;20447;-96
2023/07/29 03:33:53;;;;;;;5.05;1.50;;;20.10;99.90;;;;;;6241298;23;20462;-96
2023/07/29 03:36:26;;;;;;;4.22;1.60;;;20.10;99.90;;;;;;6217262;23;20020;-95
2023/07/29 03:39:09;;;;;;;4.03;1.55;;;20.10;99.90;;;;;;6240055;23;20099;-95
2023/07/29 03:41:39;;;;;;;3.28;1.83;;;20.10;99.90;;;;;;6241550;23;20028;-95
2023/07/29 03:44:13;;;;;;;3.47;1.42;;;20.10;99.90;;;;;;6215812;23;20023;-96
2023/07/29 03:47:08;;;;;;;3.47;1.20;;;20.10;99.90;;;;;;6216398;23;20008;-95
2023/07/29 03:49:45;;;;;;;3.60;1.48;;;20.10;99.90;;;;;;6241300;23;20027;-96
2023/07/29 03:52:45;;;;;;;;;;;;;;;;;;;;;
2023/07/29 03:55:36;;;;;;;3.25;1.25;;;20.00;99.90;;;;;;6244084;23;20090;-96
2023/07/29 03:58:13;;;;;;;2.63;1.65;;;20.10;99.90;;;;;;6218581;23;20016;-96
2023/07/29 04:00:48;;;;;;;4.05;1.50;;;20.10;99.90;;;;;;6241495;23;20020;-96
2023/07/29 04:03:49;;;;;;;3.80;1.35;;;20.30;99.90;;;;;;6242219;23;20035;-96
2023/07/29 04:06:39;;;;;;;3.08;1.63;;;20.20;99.90;;;;;;6219119;23;20059;-96
2023/07/29 04:09:30;;;;;;;4.70;1.73;;;20.20;99.90;;;;;;6218206;23;20111;-94
2023/07/29 04:12:27;;;;;;;;;;;;;;;;;;;;;
2023/07/29 04:15:24;;;;;;;9.55;1.80;;;20.20;99.90;;;;;;6244750;22;20016;-96
2023/07/29 04:21:11;;;;;;;5.32;2.17;;;20.30;99.90;;;;;;6177559;23;20035;-95
2023/07/29 04:24:19;;;;;;;3.55;1.77;;;20.40;99.90;;;;;;6159108;23;20096;-94
2023/07/29 04:27:30;;;;;;;2.78;1.55;;;20.50;99.90;;;;;;6156944;23;20036;-96
2023/07/29 04:30:33;;;;;;;4.18;1.83;;;20.40;99.90;;;;;;6091612;23;20022;-94
2023/07/29 04:33:25;;;;;;;2.92;1.48;;;20.50;99.90;;;;;;6070510;23;20049;-95
2023/07/29 04:36:11;;;;;;;4.32;2.30;;;20.60;99.90;;;;;;6071887;23;20029;-95
2023/07/29 04:39:11;;;;;;;4.85;1.58;;;20.70;99.90;;;;;;6145428;23;20021;-96
2023/07/29 04:42:00;;;;;;;4.47;1.60;;;20.80;99.90;;;;;;6132580;23;20112;-95
2023/07/29 04:44:53;;;;;;;4.85;1.90;;;20.80;99.90;;;;;;6159122;23;20100;-93
2023/07/29 04:47:49;;;;;;;3.25;2.00;;;20.90;99.90;;;;;;6157367;23;20023;-95
2023/07/29 04:50:55;;;;;;;4.85;2.25;;;20.90;99.90;;;;;;6163815;22;20021;-94
2023/07/29 04:54:11;;;;;;;;;;;;;;;;;;;;;
2023/07/29 04:57:23;;;;;;;5.68;2.35;;;21.10;99.90;;;;;;6244566;22;20015;-94
2023/07/29 05:01:07;;;;;;;5.03;2.35;;;21.10;99.90;;;;;;6253453;22;20090;-94
2023/07/29 05:08:17;;;;;;;10.15;2.58;;;21.10;99.90;;;;;;6080307;23;20023;-95
2023/07/29 05:11:58;;;;;;;6.50;2.85;;;21.30;99.90;;;;;;6114973;23;20326;-95
2023/07/29 05:15:12;;;;;;;;;;;;;;;;;;;;;
2023/07/29 05:18:26;;;;;;;5.75;2.45;;;21.60;99.90;;;;;;6117521;23;20051;-94
2023/07/29 05:21:54;;;;;;;;;;;;;;;;;;;;;
2023/07/29 05:25:42;;;;;;;;;;;;;;;;;;;;;
2023/07/29 05:35:47;;;;;;;;;;;;;;;;;;;;;
2023/07/29 05:38:34;;;;;;;3.70;1.90;;;22.70;99.90;;;;;;5838511;24;20160;-94
2023/07/29 05:41:27;;;;;;;4.13;2.30;;;22.70;99.90;;;;;;5883128;24;20031;-95
2023/07/29 05:48:38;;;;;;;4.78;2.15;;;23.60;99.90;;;;;;5952419;23;20016;-95
2023/07/29 05:51:30;;;;;;;2.88;1.52;;;23.50;99.90;;;;;;5892154;24;20109;-94
2023/07/29 05:54:52;;;;;;;2.75;1.15;;;23.50;99.80;;;;;;5893047;24;20034;-95
2023/07/29 05:57:54;;;;;;;3.20;1.42;;;23.30;99.70;;;;;;5852321;23;20126;-95
2023/07/29 06:04:44;;;;;;;2.50;1.20;;;23.30;99.90;;;;;;5923644;24;20039;-93
2023/07/29 06:07:55;;;;;;;;;;;;;;;;;;;;;
2023/07/29 06:11:29;;;;;;;4.03;1.55;;;23.80;95.50;;;;;;6029962;23;20046;-96
2023/07/29 06:15:09;;;;;;;;;;;;;;;;;;;;;
2023/07/29 06:18:52;;;;;;;3.53;1.35;;;23.80;95.70;;;;;;5953216;24;20020;-95
2023/07/29 06:27:12;;;;;;;2.75;1.05;;;23.70;97.50;;;;;;5853864;24;20022;-94
2023/07/29 06:31:04;;;;;;;3.33;1.30;;;24.10;97.40;;;;;;5907914;24;20489;-93
2023/07/29 06:34:29;;;;;;;2.75;1.30;;;24.60;95.20;;;;;;5837682;24;20063;-95
2023/07/29 06:42:07;;;;;;;;;;;;;;;;;;;;;
2023/07/29 06:45:57;;;;;;;2.92;1.27;;;24.00;95.60;;;;;;5836183;24;20026;-95
2023/07/29 06:49:03;;;;;;;3.38;1.42;;;23.50;96.50;;;;;;5952418;23;20738;-92
2023/07/29 06:56:27;;;;;;;3.83;1.52;;;23.90;96.40;;;;;;6089073;23;20057;-95
2023/07/29 06:58:54;;;;;;;4.45;1.70;;;24.20;96.30;;;;;;6096589;23;20021;-94
2023/07/29 07:01:21;;;;;;;1.88;1.17;;;24.10;96.00;;;;;;6120043;23;20653;-93
2023/07/29 07:03:48;;;;;;;3.53;1.20;;;24.00;96.60;;;;;;6096888;23;20145;-94
2023/07/29 07:06:16;;;;;;;2.38;1.10;;;24.00;96.60;;;;;;6097038;23;20033;-96
2023/07/29 07:08:44;;;;;;;1.88;1.10;;;23.90;97.40;;;;;;6095759;23;20038;-95
2023/07/29 07:11:11;;;;;;;2.67;1.10;;;23.90;97.00;;;;;;6152420;23;20023;-94
2023/07/29 07:13:38;;;;;;;2.75;1.10;;;24.10;96.40;;;;;;6242169;23;20070;-94
2023/07/29 07:16:05;;;;;;;4.15;1.20;;;24.80;94.60;;;;;;6243163;23;20036;-93
2023/07/29 07:18:33;;;;;;;3.95;1.10;;;25.20;94.00;;;;;;6219189;23;20137;-92
2023/07/29 07:21:00;;;;;;;3.58;0.98;;;25.20;92.50;;;;;;6243631;23;20031;-93
2023/07/29 07:23:27;;;;;;;2.40;1.08;;;25.10;92.70;;;;;;6241909;23;20447;-92
2023/07/29 07:25:55;;;;;;;5.78;1.10;;;25.40;92.10;;;;;;6216488;23;20078;-93
2023/07/29 07:28:22;;;;;;;2.80;1.00;;;25.70;92.20;;;;;;6216577;23;20020;-93
2023/07/29 07:30:49;;;;;;;3.15;1.00;;;25.50;92.20;;;;;;6216352;23;20485;-92
2023/07/29 07:33:16;;;;;;;2.53;1.20;;;25.40;92.20;;;;;;6216580;23;20028;-92
2023/07/29 07:35:44;;;;;;;4.50;1.20;;;25.70;91.90;;;;;;6242536;23;20020;-95
2023/07/29 07:38:11;;;;;;;3.53;0.90;;;25.90;91.10;;;;;;6240883;23;20339;-93
2023/07/29 07:40:38;;;;;;;3.83;0.90;;;26.20;91.10;;;;;;6243710;23;20100;-93
2023/07/29 07:43:05;;;;;;;3.65;1.30;;;26.30;89.70;;;;;;6216072;23;20046;-93
2023/07/29 07:45:33;;;;;;;2.75;0.75;;;26.40;90.10;;;;;;6216667;23;20028;-92
2023/07/29 07:48:00;;;;;;;2.70;0.88;;;26.50;89.30;;;;;;6216899;23;20024;-92
2023/07/29 07:50:30;;;;;;;1.73;0.90;;;26.70;88.30;;;;;;6217198;23;20020;-90
2023/07/29 07:52:58;;;;;;;1.92;0.73;;;26.90;85.30;;;;;;6212803;23;20048;-93
2023/07/29 07:55:25;;;;;;;2.50;0.70;;;26.90;85.00;;;;;;6214896;23;20386;-90
2023/07/29 07:57:53;;;;;;;2.72;0.88;;;27.00;81.90;;;;;;6237139;23;20016;-95
2023/07/29 08:00:21;;;;;;;1.67;0.43;;;26.90;82.30;;;;;;6239692;23;20081;-94
2023/07/29 08:02:48;;;;;;;1.48;0.85;;;26.80;82.70;;;;;;6242144;23;20020;-94
2023/07/29 08:05:16;;;;;;;1.10;0.45;;;26.90;83.10;;;;;;6242451;23;20044;-94
2023/07/29 08:07:43;;;;;;;1.20;0.43;;;27.00;82.50;;;;;;6241223;23;20047;-93
2023/07/29 08:10:10;;;;;;;2.30;0.47;;;27.20;81.70;;;;;;6241784;23;20222;-90
2023/07/29 08:12:37;;;;;;;1.30;0.52;;;27.20;79.30;;;;;;6217472;23;20079;-92
2023/07/29 08:15:05;;;;;;;2.00;0.50;;;27.10;78.00;;;;;;6242439;23;20027;-93
2023/07/29 08:17:33;;;;;;;1.70;0.30;;;26.90;79.20;;;;;;6242861;23;20127;-94
2023/07/29 08:20:00;;;;;;;1.52;0.80;;;26.70;77.50;;;;;;6216700;23;20016;-95
2023/07/29 08:22:27;;;;;;;1.25;0.35;;;26.80;79.10;;;;;;6242763;23;20048;-94
2023/07/29 08:24:54;;;;;;;0.90;0.30;;;27.20;80.30;;;;;;6242948;23;20040;-95
2023/07/29 08:27:21;;;;;;;3.10;0.35;;;27.30;77.50;;;;;;6243165;23;20070;-95
2023/07/29 08:29:49;;;;;;;2.17;0.40;;;27.20;78.40;;;;;;6217533;23;20024;-96
2023/07/29 08:32:16;;;;;;;2.45;0.45;;;27.20;79.30;;;;;;6244464;22;20012;-96
2023/07/29 08:34:43;;;;;;;8.25;0.60;;;27.70;78.40;;;;;;6242210;23;20020;-94
2023/07/29 08:37:11;;;;;;;1.75;0.63;;;27.90;77.20;;;;;;6217167;23;20284;-96
2023/07/29 08:39:38;;;;;;;1.35;0.63;;;27.90;77.00;;;;;;6245348;23;20024;-94
2023/07/29 08:42:10;;;;;;;1.33;0.30;;;27.80;76.60;;;;;;6218053;23;20016;-92
2023/07/29 08:44:45;;;;;;;1.10;0.30;;;27.80;75.00;;;;;;6236638;23;20454;-95
2023/07/29 08:47:16;;;;;;;2.70;0.60;;;27.90;74.70;;;;;;6240375;23;20023;-91
2023/07/29 08:49:46;;;;;;;0.73;0.32;;;28.00;75.10;;;;;;6214764;23;20069;-95
2023/07/29 08:52:14;;;;;;;0.85;0.35;;;28.10;75.70;;;;;;6239134;23;20463;-95
2023/07/29 08:54:42;;;;;;;2.30;0.60;;;28.10;73.90;;;;;;6241439;22;20070;-92
2023/07/29 08:57:10;;;;;;;0.82;0.40;;;28.20;75.10;;;;;;6213984;23;20094;-93
2023/07/29 08:59:37;;;;;;;1.83;0.60;;;28.20;72.50;;;;;;6214470;23;20056;-93
2023/07/29 09:02:05;;;;;;;0.70;0.30;;;28.30;74.60;;;;;;6239408;23;20016;-90
2023/07/29 09:04:32;;;;;;;0.70;0.25;;;28.40;73.30;;;;;;6238102;23;20028;-94
2023/07/29 09:07:00;;;;;;;1.15;0.30;;;28.40;73.90;;;;;;6238876;23;20016;-90
2023/07/29 09:09:28;;;;;;;1.70;0.20;;;28.40;71.10;;;;;;6212604;23;20516;-93
2023/07/29 09:11:56;;;;;;;3.17;0.30;;;28.40;71.60;;;;;;6239959;23;20094;-93
2023/07/29 09:14:24;;;;;;;0.60;0.22;;;28.20;70.00;;;;;;6212451;23;20028;-94
2023/07/29 09:16:52;;;;;;;1.52;0.20;;;28.30;70.20;;;;;;6215633;23;20044;-92
2023/07/29 09:19:20;;;;;;;0.85;0.25;;;28.40;70.60;;;;;;6214138;23;20032;-92
2023/07/29 09:21:47;;;;;;;3.72;0.35;;;28.40;70.10;;;;;;6242694;23;20016;-95
2023/07/29 09:24:18;;;;;;;1.23;0.40;;;28.40;70.10;;;;;;6215680;23;20024;-92
2023/07/29 09:26:53;;;;;;;1.70;0.55;;;28.40;70.40;;;;;;6242683;23;20019;-92
2023/07/29 09:29:28;;;;;;;2.00;0.32;;;28.30;68.80;;;;;;6238311;23;20465;-89
2023/07/29 09:32:20;;;;;;;0.90;0.35;;;28.40;69.40;;;;;;6239229;23;20016;-92
2023/07/29 09:34:47;;;;;;;0.63;0.30;;;28.40;70.40;;;;;;6213046;23;20016;-94
2023/07/29 09:37:22;;;;;;;1.15;0.20;;;28.40;68.90;;;;;;6237849;23;20024;-88
2023/07/29 09:39:50;;;;;;;1.42;0.30;;;28.40;69.00;;;;;;6213151;23;20207;-92
2023/07/29 09:42:22;;;;;;;1.67;0.30;;;28.40;68.80;;;;;;6240121;23;20028;-93
2023/07/29 09:44:50;;;;;;;;;;;28.50;69.30;;;;;;6239911;23;20020;-93
2023/07/29 09:47:22;;;;;;;0.88;0.20;;;28.70;71.10;;;;;;6212901;23;19920;-95
2023/07/29 09:49:50;;;;;;;1.60;0.43;;;28.40;66.70;;;;;;6237478;23;20021;-93
2023/07/29 09:52:19;;;;;;;1.98;0.30;;;28.40;66.90;;;;;;6238199;23;20032;-92
2023/07/29 09:54:47;;;;;;;1.15;0.30;;;28.40;67.30;;;;;;6238513;23;20067;-94
2023/07/29 09:57:15;;;;;;;0.90;0.47;;;28.30;67.50;;;;;;6213955;23;20028;-92
2023/07/29 09:59:43;;;;;;;2.15;0.40;;;28.40;67.90;;;;;;6239980;23;20442;-95
2023/07/29 10:02:16;;;;;;;3.90;0.30;;;28.50;69.20;;;;;;6214764;23;20347;-92
2023/07/29 10:04:45;;;;;;;1.00;0.20;;;28.60;69.10;;;;;;6240106;23;20043;-95
2023/07/29 10:07:12;;;;;;;1.05;0.30;;;28.70;65.90;;;;;;6238422;23;20750;-88
2023/07/29 10:09:40;;;;;;;0.90;0.28;;;28.60;65.60;;;;;;6238610;23;20088;-95
2023/07/29 10:12:09;;;;;;;0.80;0.25;;;28.60;66.70;;;;;;6215056;23;20013;-89
2023/07/29 10:14:38;;;;;;;0.95;0.38;;;28.70;65.50;;;;;;6240160;23;20016;-94
2023/07/29 10:17:06;;;;;;;0.57;0.28;;;28.70;66.20;;;;;;6239252;23;20016;-92
2023/07/29 10:19:36;;;;;;;1.00;0.35;;;28.70;66.40;;;;;;6241870;23;20016;-95
2023/07/29 10:22:04;;;;;;;1.73;1.00;;;28.80;66.30;;;;;;6243933;23;20024;-93
2023/07/29 10:24:33;;;;;;;2.35;0.20;;;28.90;66.50;;;;;;6242559;23;20357;-96
2023/07/29 10:27:02;;;;;;;1.33;0.80;;;28.90;67.50;;;;;;6215563;23;20046;-94
2023/07/29 10:29:38;;;;;;;2.60;0.50;;;29.00;66.70;;;;;;6241846;23;20020;-91
2023/07/29 10:32:07;;;;;;;0.70;0.30;;;28.80;65.40;;;;;;6238327;23;20063;-92
2023/07/29 10:34:36;;;;;;;2.55;0.70;;;28.70;65.30;;;;;;6241303;22;20150;-94
2023/07/29 10:37:04;;;;;;;1.65;0.50;;;28.50;65.80;;;;;;6214099;23;20478;-95
2023/07/29 10:39:51;;;;;;;1.52;0.30;;;28.60;65.30;;;;;;6217133;23;20048;-95
2023/07/29 10:42:18;;;;;;;1.98;0.28;;;28.80;65.40;;;;;;6240941;23;20072;-93
2023/07/29 10:44:51;;;;;;;0.90;0.40;;;28.90;65.20;;;;;;6218121;23;20028;-96
2023/07/29 10:47:22;;;;;;;1.20;0.30;;;29.30;66.00;;;;;;6245832;23;20051;-95
2023/07/29 10:49:54;;;;;;;1.83;0.30;;;29.40;66.50;;;;;;6242137;23;20024;-96
2023/07/29 10:52:33;;;;;;;;;;;29.40;65.20;;;;;;6240492;23;20023;-91
2023/07/29 10:55:02;;;;;;;1.40;0.40;;;29.40;65.00;;;;;;6241524;23;19919;-95
2023/07/29 11:07:48;;;;;;;0.60;0.30;;;29.60;63.40;;;;;;6248826;22;20029;-81
2023/07/29 11:10:17;;;;;;;0.90;0.30;;;29.40;63.10;;;;;;6275772;22;20018;-86
2023/07/29 11:12:54;;;;;;;2.67;0.40;;;29.20;64.70;;;;;;6247274;22;20038;-85
2023/07/29 11:15:28;;;;;;;3.00;0.85;;;29.30;64.50;;;;;;6275743;22;20023;-85
2023/07/29 11:17:57;;;;;;;0.80;0.40;;;29.30;65.60;;;;;;6269975;22;20106;-84
2023/07/29 11:20:26;;;;;;;0.80;0.40;;;29.40;65.10;;;;;;6274934;22;20030;-82
2023/07/29 11:22:54;;;;;;;1.33;0.60;;;29.90;65.10;;;;;;6250249;22;20077;-82
2023/07/29 11:25:23;;;;;;;1.40;0.40;;;30.00;63.70;;;;;;6275596;22;20637;-83
2023/07/29 11:27:56;;;;;;;1.92;0.57;;;29.90;62.70;;;;;;6276675;22;20510;-85
2023/07/29 11:30:26;;;;;;;0.93;0.40;;;29.60;64.80;;;;;;6276893;22;20016;-84
2023/07/29 11:32:55;;;;;;;2.33;0.65;;;29.30;63.90;;;;;;6276419;22;20019;-86
2023/07/29 11:35:22;;;;;;;3.47;0.60;;;29.20;65.00;;;;;;6274251;22;20106;-85
2023/07/29 11:37:51;;;;;;;2.17;0.60;;;29.10;65.80;;;;;;6273790;22;20047;-86
2023/07/29 11:40:22;;;;;;;1.85;0.70;;;29.00;65.60;;;;;;6275449;22;20030;-80
2023/07/29 11:42:51;;;;;;;2.00;0.85;;;28.80;66.50;;;;;;6276727;22;20072;-85
2023/07/29 11:45:20;;;;;;;1.30;0.50;;;28.70;67.10;;;;;;6275792;22;20019;-86
2023/07/29 11:47:47;;;;;;;2.38;0.95;;;28.60;66.20;;;;;;6278087;22;20023;-87
2023/07/29 11:50:15;;;;;;;2.22;0.50;;;28.60;66.50;;;;;;6252754;22;20027;-87
2023/07/29 11:52:46;;;;;;;0.60;0.30;;;28.60;66.00;;;;;;6253023;22;20060;-87
2023/07/29 11:55:15;;;;;;;1.98;0.50;;;28.50;65.80;;;;;;6252183;22;20359;-85
2023/07/29 11:57:43;;;;;;;1.83;0.50;;;28.50;66.20;;;;;;6253936;22;20524;-86
2023/07/29 12:00:11;;;;;;;1.00;0.30;;;28.40;66.40;;;;;;6226380;22;20046;-86
2023/07/29 12:02:44;;;;;;;0.90;0.30;;;28.40;67.40;;;;;;6249604;22;20099;-84
2023/07/29 12:05:13;;;;;;;1.48;0.45;;;28.50;67.60;;;;;;6248820;22;20150;-85
2023/07/29 12:07:43;;;;;;;0.88;0.35;;;28.70;67.60;;;;;;6246364;22;20027;-85
2023/07/29 12:10:11;;;;;;;1.10;0.30;;;28.90;66.50;;;;;;6223118;22;20722;-86
2023/07/29 12:12:46;;;;;;;1.75;0.65;;;29.00;66.30;;;;;;6222928;22;20020;-85
2023/07/29 12:15:13;;;;;;;0.47;0.30;;;29.20;65.80;;;;;;6249069;22;20026;-81
2023/07/29 12:17:41;;;;;;;1.45;0.30;;;29.40;65.40;;;;;;6225658;22;20024;-84
2023/07/29 12:20:11;;;;;;;1.10;0.50;;;29.60;65.60;;;;;;6222982;22;20023;-81
2023/07/29 12:22:39;;;;;;;1.10;0.50;;;29.70;64.90;;;;;;6222610;22;20107;-83
2023/07/29 12:25:06;;;;;;;1.92;0.55;;;29.70;65.30;;;;;;6247198;22;20020;-85
2023/07/29 12:27:34;;;;;;;0.90;0.20;;;29.70;64.70;;;;;;6220594;22;20062;-83
2023/07/29 12:30:03;;;;;;;1.27;0.50;;;29.50;63.00;;;;;;6248409;22;20727;-84
2023/07/29 12:32:31;;;;;;;0.90;0.30;;;29.50;63.30;;;;;;6276178;22;20022;-83
2023/07/29 12:34:58;;;;;;;0.73;0.30;;;29.50;63.50;;;;;;6223161;22;20742;-83
2023/07/29 12:37:33;;;;;;;1.10;0.40;;;29.40;62.80;;;;;;6247531;22;20015;-86
2023/07/29 12:40:00;;;;;;;2.58;0.40;;;29.70;63.90;;;;;;6247280;22;20016;-84
2023/07/29 12:42:27;;;;;;;0.93;0.22;;;29.80;62.70;;;;;;6245911;22;20016;-84
2023/07/29 12:44:54;;;;;;;0.73;0.30;;;29.90;62.10;;;;;;6220997;22;20022;-83
2023/07/29 12:47:21;;;;;;;1.10;0.30;;;29.80;61.80;;;;;;6224093;22;20012;-83
2023/07/29 12:49:48;;;;;;;1.75;0.25;;;29.60;62.60;;;;;;6247249;22;20090;-83
2023/07/29 12:52:15;;;;;;;0.70;0.22;;;29.50;63.60;;;;;;6238878;22;20028;-84
2023/07/29 12:54:44;;;;;;;0.90;0.30;;;29.50;62.30;;;;;;6213833;22;20085;-84
2023/07/29 12:57:11;;;;;;;0.68;0.30;;;29.60;61.60;;;;;;6218021;22;20085;-83
2023/07/29 12:59:38;;;;;;;1.40;0.73;;;29.80;62.00;;;;;;6213872;22;20055;-82
2023/07/29 13:02:05;;;;;;;1.85;0.30;;;30.00;63.50;;;;;;6238844;22;20047;-84
2023/07/29 13:04:34;;;;;;;1.70;0.38;;;30.00;62.00;;;;;;6214146;22;20047;-83
2023/07/29 13:07:01;;;;;;;0.88;0.32;;;30.10;62.10;;;;;;6238542;22;20019;-82
2023/07/29 13:09:28;;;;;;;3.83;0.50;;;30.00;61.20;;;;;;6213330;22;20032;-84
2023/07/29 13:11:55;;;;;;;0.70;0.30;;;29.70;62.00;;;;;;6242254;22;20023;-81
2023/07/29 13:14:26;;;;;;;1.00;0.30;;;29.80;63.00;;;;;;6213902;22;20027;-83
2023/07/29 13:16:53;;;;;;;1.50;0.40;;;29.80;62.10;;;;;;6214626;22;20059;-84
2023/07/29 13:19:20;;;;;;;0.80;0.30;;;29.50;62.10;;;;;;6241198;22;20019;-83
2023/07/29 13:21:47;;;;;;;0.80;0.30;;;29.20;62.10;;;;;;6217288;22;20107;-84
2023/07/29 13:24:14;;;;;;;1.20;0.30;;;29.00;62.50;;;;;;6239146;22;20260;-85
2023/07/29 13:26:42;;;;;;;1.08;0.30;;;28.90;63.30;;;;;;6242711;22;20296;-85
2023/07/29 13:29:09;;;;;;;2.05;0.30;;;28.80;63.10;;;;;;6213520;22;20023;-84
2023/07/29 13:31:36;;;;;;;1.40;0.30;;;28.90;64.50;;;;;;6241761;22;20127;-84
2023/07/29 13:34:03;;;;;;;1.55;0.30;;;29.00;63.60;;;;;;6213465;22;20023;-84
2023/07/29 13:36:30;;;;;;;2.88;0.35;;;29.20;63.60;;;;;;6212865;22;20033;-80
2023/07/29 13:38:57;;;;;;;1.10;0.40;;;29.20;64.00;;;;;;6216019;22;20027;-84
2023/07/29 13:41:24;;;;;;;1.60;0.77;;;29.10;64.90;;;;;;6188300;22;20045;-85
2023/07/29 13:43:51;;;;;;;2.58;0.43;;;29.00;66.00;;;;;;6213440;22;20019;-84
2023/07/29 13:46:21;;;;;;;0.98;0.40;;;28.80;67.10;;;;;;6213750;22;20029;-83
2023/07/29 13:48:49;;;;;;;1.45;0.30;;;29.00;67.40;;;;;;6238093;22;20020;-84
2023/07/29 13:51:16;;;;;;;0.93;0.40;;;29.10;65.90;;;;;;6241069;22;20125;-83
2023/07/29 13:53:43;;;;;;;1.42;0.45;;;28.90;66.50;;;;;;6238970;22;20020;-83
2023/07/29 13:56:10;;;;;;;1.65;0.38;;;28.90;66.60;;;;;;6213383;22;20125;-83
2023/07/29 13:58:37;;;;;;;0.88;0.40;;;28.80;66.10;;;;;;6213542;22;20023;-84
2023/07/29 14:01:04;;;;;;;1.08;0.35;;;28.70;66.40;;;;;;6246245;22;20521;-84
2023/07/29 14:03:31;;;;;;;1.55;0.70;;;28.70;66.50;;;;;;6240292;22;20027;-84
2023/07/29 14:05:58;;;;;;;5.90;0.65;;;28.60;65.90;;;;;;6215404;22;20024;-83
2023/07/29 14:08:26;;;;;;;0.80;0.30;;;28.70;66.20;;;;;;6237636;22;20035;-83
2023/07/29 14:10:53;;;;;;;1.58;0.38;;;29.00;65.70;;;;;;6216297;22;20015;-84
2023/07/29 14:13:20;;;;;;;1.15;0.30;;;29.30;66.10;;;;;;6213244;22;20020;-82
2023/07/29 14:15:47;;;;;;;1.67;0.30;;;29.20;66.40;;;;;;6216422;22;20023;-83
2023/07/29 14:18:15;;;;;;;1.35;0.40;;;29.20;66.70;;;;;;6213882;22;20028;-84
2023/07/29 14:20:42;;;;;;;1.17;0.35;;;29.40;66.40;;;;;;6240290;22;20023;-84
2023/07/29 14:23:09;;;;;;;0.98;0.40;;;29.50;65.50;;;;;;6243370;22;20016;-82
2023/07/29 14:25:36;;;;;;;0.80;0.20;;;29.60;64.00;;;;;;6238166;22;20338;-82
2023/07/29 14:28:03;;;;;;;1.38;0.30;;;29.40;63.30;;;;;;6213674;22;20048;-82
2023/07/29 14:30:30;;;;;;;0.65;0.25;;;29.20;63.20;;;;;;6242318;22;20057;-84
2023/07/29 14:32:58;;;;;;;1.17;0.30;;;29.10;62.80;;;;;;6212628;22;20170;-83